createdAt,value
2022-09-18T00:01:46.073Z,56.88
2022-09-18T00:04:15.641Z,53.33
2022-09-18T00:06:45.529Z,47.67
2022-09-18T00:09:16.471Z,40.15
2022-09-18T00:11:48.308Z,37.97
2022-09-18T00:14:20.042Z,31.48
2022-09-18T00:16:48.131Z,30.83
2022-09-18T00:19:16.678Z,28.30
2022-09-18T00:21:48.238Z,28.65
2022-09-18T00:24:20.121Z,26.77
2022-09-18T00:26:49.080Z,31.95
2022-09-18T00:29:20.689Z,33.33
2022-09-18T00:31:48.675Z,25.92
2022-09-18T00:34:17.134Z,27.02
2022-09-18T00:36:46.445Z,35.60
2022-09-18T00:39:15.220Z,39.17
2022-09-18T00:41:44.840Z,45.80
2022-09-18T00:44:43.806Z,50.28
2022-09-18T00:47:11.733Z,46.33
2022-09-18T00:50:04.855Z,39.63
2022-09-18T00:53:02.722Z,38.22
2022-09-18T00:55:35.223Z,34.03
2022-09-18T00:58:03.880Z,32.38
2022-09-18T01:00:33.174Z,29.05
2022-09-18T01:03:02.367Z,29.17
2022-09-18T01:05:49.637Z,26.75
2022-09-18T01:08:44.329Z,25.90
2022-09-18T01:11:37.161Z,37.25
2022-09-18T01:14:33.798Z,31.65
2022-09-18T01:17:22.687Z,25.48
2022-09-18T01:20:23.956Z,21.90
2022-09-18T01:23:24.365Z,20.67
2022-09-18T01:26:29.750Z,20.08
2022-09-18T01:29:10.833Z,22.20
2022-09-18T01:31:58.261Z,24.08
2022-09-18T01:34:52.109Z,27.33
2022-09-18T01:37:27.113Z,27.33
2022-09-18T01:40:03.514Z,28.40
2022-09-18T01:42:34.006Z,30.55
2022-09-18T01:45:07.578Z,32.67
2022-09-18T01:48:01.005Z,33.15
2022-09-18T01:50:32.440Z,29.75
2022-09-18T01:53:04.339Z,29.70
2022-09-18T01:55:36.641Z,28.67
2022-09-18T01:58:09.853Z,26.42
2022-09-18T02:00:44.022Z,24.55
2022-09-18T02:03:58.102Z,34.22
2022-09-18T02:06:59.226Z,35.13
2022-09-18T02:09:28.273Z,29.98
2022-09-18T02:11:59.708Z,28.92
2022-09-18T02:14:36.524Z,31.73
2022-09-18T02:17:09.504Z,28.88
2022-09-18T02:19:47.033Z,28.02
2022-09-18T02:22:18.585Z,28.55
2022-09-18T02:24:51.332Z,29.23
2022-09-18T02:27:22.231Z,31.67
2022-09-18T02:29:51.935Z,30.85
2022-09-18T02:32:22.811Z,30.90
2022-09-18T02:34:51.055Z,32.15
2022-09-18T02:37:58.776Z,32.28
2022-09-18T02:43:43.982Z,32.45
2022-09-18T02:46:36.780Z,30.75
2022-09-18T02:49:26.407Z,31.33
2022-09-18T02:52:24.940Z,28.20
2022-09-18T02:55:13.748Z,27.65
2022-09-18T02:57:49.880Z,28.05
2022-09-18T03:00:20.569Z,26.08
2022-09-18T03:02:51.037Z,23.05
2022-09-18T03:05:19.745Z,20.77
2022-09-18T03:07:48.184Z,22.10
2022-09-18T03:10:16.156Z,19.58
2022-09-18T03:12:44.114Z,17.85
2022-09-18T03:15:13.294Z,16.23
2022-09-18T03:17:41.318Z,15.95
2022-09-18T03:20:09.627Z,13.70
2022-09-18T03:22:37.722Z,11.05
2022-09-18T03:25:06.125Z,12.38
2022-09-18T03:27:34.034Z,11.15
2022-09-18T03:30:02.793Z,10.38
2022-09-18T03:32:30.960Z,7.30
2022-09-18T03:34:58.873Z,7.53
2022-09-18T03:37:26.970Z,5.80
2022-09-18T03:39:54.967Z,5.28
2022-09-18T03:42:22.981Z,5.85
2022-09-18T03:44:54.080Z,5.55
2022-09-18T03:47:21.975Z,5.32
2022-09-18T03:49:49.935Z,5.90
2022-09-18T03:52:18.052Z,5.38
2022-09-18T03:54:46.152Z,4.72
2022-09-18T03:57:14.160Z,5.88
2022-09-18T03:59:42.335Z,5.00
2022-09-18T04:02:11.087Z,4.65
2022-09-18T04:04:39.012Z,4.57
2022-09-18T04:07:08.957Z,4.72
2022-09-18T04:09:39.356Z,3.97
2022-09-18T04:12:07.487Z,4.70
2022-09-18T04:14:37.106Z,4.53
2022-09-18T04:17:05.082Z,4.72
2022-09-18T04:19:33.057Z,4.97
2022-09-18T04:22:01.086Z,4.15
2022-09-18T04:24:29.260Z,4.57
2022-09-18T04:26:57.080Z,5.53
2022-09-18T04:29:25.144Z,5.03
2022-09-18T04:31:53.072Z,5.53
2022-09-18T04:34:21.139Z,5.00
2022-09-18T04:36:50.254Z,4.30
2022-09-18T04:39:18.290Z,3.88
2022-09-18T04:41:46.625Z,4.68
2022-09-18T04:44:15.703Z,4.00
2022-09-18T04:46:43.786Z,4.43
2022-09-18T04:49:12.043Z,4.68
2022-09-18T04:51:40.160Z,4.30
2022-09-18T04:54:08.161Z,8.43
2022-09-18T04:56:36.188Z,8.63
2022-09-18T04:59:04.642Z,4.60
2022-09-18T05:01:32.807Z,4.00
2022-09-18T05:04:00.792Z,4.13
2022-09-18T05:06:30.747Z,5.22
2022-09-18T05:11:27.963Z,3.72
2022-09-18T05:13:57.522Z,4.32
2022-09-18T05:16:25.773Z,3.92
2022-09-18T05:18:53.758Z,4.25
2022-09-18T05:21:23.536Z,4.28
2022-09-18T05:23:51.597Z,4.40
2022-09-18T05:26:38.751Z,4.57
2022-09-18T05:29:06.751Z,5.50
2022-09-18T05:31:34.784Z,5.00
2022-09-18T05:34:05.065Z,4.18
2022-09-18T05:36:33.073Z,4.13
2022-09-18T05:39:01.198Z,4.50
2022-09-18T05:41:30.300Z,3.83
2022-09-18T05:43:58.240Z,4.70
2022-09-18T05:46:26.220Z,4.25
2022-09-18T05:48:54.769Z,4.00
2022-09-18T05:51:22.750Z,3.58
2022-09-18T05:53:50.669Z,3.80
2022-09-18T05:56:18.794Z,3.60
2022-09-18T05:58:46.772Z,4.30
2022-09-18T06:01:15.203Z,4.15
2022-09-18T06:03:43.252Z,4.28
2022-09-18T06:06:11.491Z,3.30
2022-09-18T06:08:39.448Z,3.10
2022-09-18T06:11:08.991Z,3.38
2022-09-18T06:13:37.133Z,4.35
2022-09-18T06:16:05.228Z,3.85
2022-09-18T06:18:33.289Z,4.40
2022-09-18T06:21:01.228Z,3.15
2022-09-18T06:23:30.312Z,3.05
2022-09-18T06:26:10.394Z,3.77
2022-09-18T06:28:42.259Z,3.58
2022-09-18T06:31:11.275Z,5.63
2022-09-18T06:33:39.375Z,2.83
2022-09-18T06:36:14.437Z,3.33
2022-09-18T06:38:42.426Z,3.15
2022-09-18T06:41:10.537Z,2.80
2022-09-18T06:43:38.462Z,2.65
2022-09-18T06:46:08.665Z,29.73
2022-09-18T06:48:38.402Z,7.07
2022-09-18T06:51:06.698Z,4.32
2022-09-18T06:53:34.667Z,3.05
2022-09-18T06:56:04.365Z,2.90
2022-09-18T06:58:32.551Z,2.45
2022-09-18T07:01:01.649Z,2.10
2022-09-18T07:03:30.928Z,2.15
2022-09-18T07:05:58.946Z,2.30
2022-09-18T07:08:26.844Z,2.63
2022-09-18T07:10:57.093Z,2.50
2022-09-18T07:13:25.142Z,1.85
2022-09-18T07:15:54.341Z,2.10
2022-09-18T07:18:22.571Z,1.75
2022-09-18T07:20:50.721Z,2.10
2022-09-18T07:23:18.677Z,4.50
2022-09-18T07:28:32.488Z,2.25
2022-09-18T07:31:07.947Z,2.83
2022-09-18T07:33:36.103Z,2.42
2022-09-18T07:36:07.125Z,2.10
2022-09-18T07:38:55.009Z,2.20
2022-09-18T07:41:22.933Z,6.07
2022-09-18T07:43:51.962Z,3.28
2022-09-18T07:46:20.336Z,3.70
2022-09-18T07:48:48.561Z,2.40
2022-09-18T07:51:16.869Z,2.33
2022-09-18T07:53:47.578Z,2.30
2022-09-18T07:56:15.570Z,2.03
2022-09-18T07:58:43.537Z,1.75
2022-09-18T08:01:11.904Z,2.00
2022-09-18T08:03:41.581Z,1.73
2022-09-18T08:08:38.498Z,2.33
2022-09-18T08:11:06.511Z,2.30
2022-09-18T08:13:34.853Z,1.52
2022-09-18T08:18:32.804Z,2.20
2022-09-18T08:21:00.758Z,2.60
2022-09-18T08:23:29.970Z,1.77
2022-09-18T08:26:04.764Z,2.20
2022-09-18T08:28:32.975Z,1.80
2022-09-18T08:31:02.643Z,2.20
2022-09-18T08:33:31.530Z,2.65
2022-09-18T08:35:59.588Z,2.35
2022-09-18T08:38:29.704Z,2.20
2022-09-18T08:41:23.170Z,2.75
2022-09-18T08:44:13.980Z,2.47
2022-09-18T08:46:50.078Z,2.72
2022-09-18T08:49:53.262Z,2.33
2022-09-18T08:52:29.124Z,2.80
2022-09-18T08:55:22.924Z,3.50
2022-09-18T08:57:59.989Z,4.03
2022-09-18T09:00:58.934Z,2.88
2022-09-18T09:04:03.705Z,8.07
2022-09-18T09:06:47.798Z,14.52
2022-09-18T09:09:32.545Z,18.48
2022-09-18T09:12:25.738Z,19.98
2022-09-18T09:14:57.660Z,7.65
2022-09-18T09:17:39.463Z,4.18
2022-09-18T09:20:07.417Z,9.40
2022-09-18T09:22:59.375Z,4.70
2022-09-18T09:25:51.342Z,4.22
2022-09-18T09:28:29.956Z,4.10
2022-09-18T09:31:03.730Z,4.55
2022-09-18T09:33:42.639Z,4.28
2022-09-18T09:36:16.960Z,5.25
2022-09-18T09:39:02.568Z,6.70
2022-09-18T09:41:54.773Z,5.15
2022-09-18T09:44:31.816Z,6.40
2022-09-18T09:47:05.545Z,5.60
2022-09-18T09:50:19.016Z,5.38
2022-09-18T09:52:48.142Z,4.85
2022-09-18T09:55:20.015Z,7.60
2022-09-18T09:57:58.430Z,7.72
2022-09-18T10:00:26.386Z,7.47
2022-09-18T10:03:06.275Z,10.05
2022-09-18T10:05:43.770Z,7.38
2022-09-18T10:08:16.286Z,7.30
2022-09-18T10:10:54.731Z,7.63
2022-09-18T10:13:27.088Z,6.35
2022-09-18T10:16:14.048Z,5.97
2022-09-18T10:18:49.081Z,5.63
2022-09-18T10:21:24.207Z,4.82
2022-09-18T10:24:17.272Z,4.78
2022-09-18T10:26:56.710Z,4.85
2022-09-18T10:29:24.861Z,5.18
2022-09-18T10:31:59.445Z,4.65
2022-09-18T10:34:49.319Z,4.88
2022-09-18T10:37:32.045Z,4.35
2022-09-18T10:40:02.060Z,6.35
2022-09-18T10:42:33.611Z,6.95
2022-09-18T10:45:24.427Z,6.43
2022-09-18T10:48:24.522Z,6.30
2022-09-18T10:50:58.201Z,6.40
2022-09-18T10:53:31.570Z,6.82
2022-09-18T10:56:07.113Z,7.63
2022-09-18T10:58:35.407Z,6.90
2022-09-18T11:01:11.168Z,6.63
2022-09-18T11:03:43.172Z,7.13
2022-09-18T11:06:20.504Z,6.43
2022-09-18T11:08:51.589Z,6.28
2022-09-18T11:11:31.394Z,6.75
2022-09-18T11:14:07.480Z,6.10
2022-09-18T11:16:49.858Z,6.03
2022-09-18T11:19:26.155Z,7.53
2022-09-18T11:22:00.521Z,6.05
2022-09-18T11:24:34.264Z,5.85
2022-09-18T11:27:04.678Z,6.05
2022-09-18T11:29:35.607Z,5.32
2022-09-18T11:32:25.931Z,5.40
2022-09-18T11:34:58.672Z,5.30
2022-09-18T11:37:31.828Z,4.93
2022-09-18T11:40:18.093Z,4.95
2022-09-18T11:42:48.779Z,4.53
2022-09-18T11:45:47.378Z,5.45
2022-09-18T11:48:33.483Z,5.78
2022-09-18T11:51:06.580Z,4.95
2022-09-18T11:53:49.836Z,5.00
2022-09-18T11:56:30.892Z,4.82
2022-09-18T11:59:10.012Z,5.07
2022-09-18T12:01:44.777Z,5.27
2022-09-18T12:04:35.413Z,5.32
2022-09-18T12:07:37.562Z,5.10
2022-09-18T12:10:27.147Z,4.68
2022-09-18T12:13:25.375Z,5.88
2022-09-18T12:16:26.942Z,5.05
2022-09-18T12:19:08.120Z,6.28
2022-09-18T12:22:03.772Z,5.45
2022-09-18T12:24:31.996Z,5.60
2022-09-18T12:27:06.748Z,5.80
2022-09-18T12:29:55.241Z,6.70
2022-09-18T12:32:57.561Z,11.20
2022-09-18T12:35:46.567Z,9.88
2022-09-18T12:38:52.166Z,9.97
2022-09-18T12:41:36.776Z,22.35
2022-09-18T12:44:30.595Z,29.10
2022-09-18T12:47:16.157Z,20.63
2022-09-18T12:50:07.368Z,14.30
2022-09-18T12:53:26.007Z,14.65
2022-09-18T12:56:20.124Z,20.50
2022-09-18T12:59:15.238Z,17.15
2022-09-18T13:02:03.916Z,18.42
2022-09-18T13:04:40.031Z,20.13
2022-09-18T13:07:16.423Z,19.05
2022-09-18T13:09:55.354Z,25.70
2022-09-18T13:13:00.792Z,23.23
2022-09-18T13:15:52.433Z,28.00
2022-09-18T13:18:47.699Z,32.88
2022-09-18T13:21:26.944Z,31.27
2022-09-18T13:23:56.505Z,30.95
2022-09-18T13:26:27.133Z,30.63
2022-09-18T13:28:57.880Z,32.65
2022-09-18T13:31:37.440Z,21.30
2022-09-18T13:34:15.577Z,12.50
2022-09-18T13:36:47.988Z,8.10
2022-09-18T13:39:22.452Z,17.63
2022-09-18T13:41:53.956Z,22.10
2022-09-18T13:44:27.969Z,22.20
2022-09-18T13:47:16.866Z,12.90
2022-09-18T13:49:59.423Z,16.88
2022-09-18T13:52:37.480Z,26.35
2022-09-18T13:55:14.429Z,27.08
2022-09-18T13:57:43.077Z,28.98
2022-09-18T14:00:20.153Z,30.23
2022-09-18T14:02:50.601Z,32.58
2022-09-18T14:05:41.030Z,32.58
2022-09-18T14:08:38.358Z,32.35
2022-09-18T14:11:15.307Z,44.78
2022-09-18T14:13:52.810Z,40.58
2022-09-18T14:16:20.833Z,45.80
2022-09-18T14:18:48.700Z,52.45
2022-09-18T14:21:20.380Z,62.72
2022-09-18T14:23:48.422Z,74.43
2022-09-18T14:26:32.898Z,64.28
2022-09-18T14:29:02.113Z,51.63
2022-09-18T14:31:38.035Z,49.97
2022-09-18T14:34:30.974Z,48.25
2022-09-18T14:37:02.358Z,62.05
2022-09-18T14:39:33.464Z,58.13
2022-09-18T14:42:33.604Z,65.32
2022-09-18T14:45:15.713Z,61.58
2022-09-18T14:47:49.733Z,59.25
2022-09-18T14:50:34.529Z,79.88
2022-09-18T14:53:21.776Z,87.28
2022-09-18T14:55:57.537Z,75.82
2022-09-18T14:58:31.850Z,71.75
2022-09-18T15:01:00.215Z,69.20
2022-09-18T15:03:37.196Z,69.15
2022-09-18T15:06:39.349Z,72.53
2022-09-18T15:09:11.668Z,85.28
2022-09-18T15:12:01.782Z,100.15
2022-09-18T15:14:45.393Z,82.00
2022-09-18T15:17:19.727Z,57.30
2022-09-18T15:20:03.654Z,54.00
2022-09-18T15:22:32.609Z,49.58
2022-09-18T15:25:02.422Z,50.67
2022-09-18T15:27:35.720Z,49.13
2022-09-18T15:30:09.003Z,39.60
2022-09-18T15:32:45.138Z,45.25
2022-09-18T15:35:28.914Z,41.35
2022-09-18T15:38:03.339Z,49.05
2022-09-18T15:40:37.843Z,51.25
2022-09-18T15:43:28.037Z,50.90
2022-09-18T15:46:08.368Z,49.17
2022-09-18T15:48:46.769Z,50.40
2022-09-18T15:51:23.857Z,50.42
2022-09-18T15:54:12.933Z,50.75
2022-09-18T15:56:51.268Z,39.55
2022-09-18T15:59:39.325Z,43.83
2022-09-18T16:02:32.575Z,47.42
2022-09-18T16:05:10.469Z,48.22
2022-09-18T16:07:40.514Z,49.67
2022-09-18T16:10:36.244Z,48.05
2022-09-18T16:13:07.429Z,49.20
2022-09-18T16:15:36.349Z,54.45
2022-09-18T16:18:19.986Z,47.53
2022-09-18T16:20:59.876Z,56.65
2022-09-18T16:26:06.739Z,62.75
2022-09-18T16:28:41.154Z,63.35
2022-09-18T16:31:09.309Z,59.17
2022-09-18T16:34:13.008Z,59.15
2022-09-18T16:36:43.562Z,53.38
2022-09-18T16:39:20.636Z,54.72
2022-09-18T16:41:49.438Z,44.85
2022-09-18T16:44:19.550Z,39.78
2022-09-18T16:46:52.327Z,43.33
2022-09-18T16:49:26.107Z,42.00
2022-09-18T16:51:56.222Z,44.15
2022-09-18T16:54:27.460Z,53.17
2022-09-18T16:57:06.542Z,57.63
2022-09-18T16:59:38.267Z,43.22
2022-09-18T17:02:06.490Z,39.67
2022-09-18T17:04:35.494Z,41.90
2022-09-18T17:07:04.975Z,38.90
2022-09-18T17:09:33.461Z,42.92
2022-09-18T17:12:01.458Z,39.63
2022-09-18T17:14:30.985Z,39.28
2022-09-18T17:16:58.958Z,40.70
2022-09-18T17:19:26.960Z,39.88
2022-09-18T17:21:57.772Z,41.88
2022-09-18T17:24:28.174Z,40.60
2022-09-18T17:26:56.213Z,40.30
2022-09-18T17:29:24.506Z,37.35
2022-09-18T17:32:01.508Z,37.25
2022-09-18T17:34:29.808Z,37.85
2022-09-18T17:36:57.817Z,35.15
2022-09-18T17:39:25.759Z,37.38
2022-09-18T17:41:55.988Z,34.45
2022-09-18T17:44:25.089Z,31.40
2022-09-18T17:46:54.194Z,29.70
2022-09-18T17:49:23.553Z,31.42
2022-09-18T17:51:51.527Z,32.28
2022-09-18T17:54:19.662Z,30.23
2022-09-18T17:56:48.531Z,29.58
2022-09-18T17:59:16.521Z,28.48
2022-09-18T18:01:47.284Z,30.02
2022-09-18T18:04:16.067Z,33.45
2022-09-18T18:06:44.090Z,31.60
2022-09-18T18:09:12.006Z,33.60
2022-09-18T18:11:40.432Z,34.97
2022-09-18T18:14:08.536Z,33.90
2022-09-18T18:16:38.758Z,32.13
2022-09-18T18:19:13.394Z,32.15
2022-09-18T18:21:43.135Z,35.00
2022-09-18T18:26:45.407Z,50.35
2022-09-18T18:29:16.121Z,84.60
2022-09-18T18:31:48.534Z,134.13
2022-09-18T18:34:22.883Z,58.70
2022-09-18T18:36:51.275Z,50.45
2022-09-18T18:39:20.633Z,40.88
2022-09-18T18:41:50.977Z,37.92
2022-09-18T18:44:19.029Z,37.70
2022-09-18T18:46:47.144Z,34.22
2022-09-18T18:49:35.944Z,28.70
2022-09-18T18:52:05.781Z,30.58
2022-09-18T18:57:03.078Z,40.22
2022-09-18T18:59:32.827Z,42.58
2022-09-18T19:02:02.874Z,40.13
2022-09-18T19:04:31.801Z,30.63
2022-09-18T19:06:59.706Z,25.67
2022-09-18T19:09:31.241Z,25.77
2022-09-18T19:11:59.744Z,24.63
2022-09-18T19:14:33.935Z,26.60
2022-09-18T19:17:02.038Z,25.27
2022-09-18T19:19:32.072Z,28.95
2022-09-18T19:22:00.311Z,32.35
2022-09-18T19:24:29.159Z,33.65
2022-09-18T19:26:58.664Z,30.17
2022-09-18T19:29:26.616Z,35.38
2022-09-18T19:31:54.576Z,31.50
2022-09-18T19:34:26.228Z,32.72
2022-09-18T19:36:54.245Z,34.85
2022-09-18T19:39:24.906Z,36.53
2022-09-18T19:42:05.014Z,39.80
2022-09-18T19:44:45.472Z,36.00
2022-09-18T19:47:50.470Z,40.97
2022-09-18T19:50:24.806Z,32.90
2022-09-18T19:52:52.846Z,28.48
2022-09-18T19:55:24.069Z,27.17
2022-09-18T19:57:55.500Z,24.55
2022-09-18T20:00:24.711Z,24.70
2022-09-18T20:02:54.685Z,26.77
2022-09-18T20:05:22.665Z,28.65
2022-09-18T20:07:50.890Z,26.98
2022-09-18T20:10:20.108Z,25.83
2022-09-18T20:12:48.314Z,23.73
2022-09-18T20:15:16.213Z,22.48
2022-09-18T20:17:44.301Z,20.75
2022-09-18T20:20:16.311Z,22.08
2022-09-18T20:22:44.592Z,23.13
2022-09-18T20:25:13.758Z,22.83
2022-09-18T20:27:42.759Z,21.38
2022-09-18T20:30:30.428Z,20.65
2022-09-18T20:32:58.324Z,22.92
2022-09-18T20:35:27.534Z,20.20
2022-09-18T20:37:58.086Z,20.77
2022-09-18T20:40:28.759Z,19.77
2022-09-18T20:42:56.677Z,19.60
2022-09-18T20:45:27.277Z,19.45
2022-09-18T20:47:55.179Z,19.08
2022-09-18T20:50:26.290Z,19.52
2022-09-18T20:52:56.782Z,18.70
2022-09-18T20:55:25.447Z,18.33
2022-09-18T20:57:53.310Z,18.63
2022-09-18T21:00:22.945Z,18.42
2022-09-18T21:05:19.991Z,17.75
2022-09-18T21:07:48.965Z,17.20
2022-09-18T21:10:16.974Z,18.40
2022-09-18T21:12:45.501Z,16.38
2022-09-18T21:15:15.322Z,15.95
2022-09-18T21:17:43.564Z,16.75
2022-09-18T21:20:11.705Z,16.33
2022-09-18T21:23:00.376Z,16.52
2022-09-18T21:25:31.212Z,15.80
2022-09-18T21:27:59.222Z,14.82
2022-09-18T21:30:28.529Z,15.85
2022-09-18T21:32:56.413Z,15.52
2022-09-18T21:35:24.356Z,15.30
2022-09-18T21:37:55.818Z,15.45
2022-09-18T21:40:24.712Z,15.20
2022-09-18T21:42:53.444Z,14.73
2022-09-18T21:45:21.733Z,15.02
2022-09-18T21:47:51.346Z,14.48
2022-09-18T21:50:19.744Z,15.65
2022-09-18T21:52:48.504Z,14.55
2022-09-18T21:55:16.535Z,13.77
2022-09-18T21:57:44.457Z,14.07
2022-09-18T22:00:12.936Z,13.18
2022-09-18T22:02:41.627Z,15.15
2022-09-18T22:05:12.329Z,13.88
2022-09-18T22:07:42.433Z,13.25
2022-09-18T22:10:10.537Z,14.00
2022-09-18T22:12:47.487Z,14.63
2022-09-18T22:15:16.544Z,15.02
2022-09-18T22:17:44.580Z,15.05
2022-09-18T22:20:12.508Z,14.57
2022-09-18T22:22:42.077Z,14.07
2022-09-18T22:25:10.302Z,14.75
2022-09-18T22:27:38.327Z,15.57
2022-09-18T22:30:06.944Z,14.32
2022-09-18T22:32:34.890Z,14.73
2022-09-18T22:35:03.491Z,14.88
2022-09-18T22:37:33.222Z,14.18
2022-09-18T22:40:01.338Z,12.25
2022-09-18T22:42:31.754Z,11.82
2022-09-18T22:44:59.816Z,12.40
2022-09-18T22:47:27.863Z,12.10
2022-09-18T22:49:55.961Z,13.15
2022-09-18T22:52:24.033Z,11.70
2022-09-18T22:54:51.932Z,12.20
2022-09-18T22:57:19.802Z,11.30
2022-09-18T22:59:47.909Z,11.13
2022-09-18T23:02:15.936Z,11.88
2022-09-18T23:04:43.936Z,10.93
2022-09-18T23:07:12.145Z,10.57
2022-09-18T23:09:42.099Z,10.75
2022-09-18T23:12:10.164Z,11.55
2022-09-18T23:14:38.217Z,10.70
2022-09-18T23:17:06.373Z,10.32
2022-09-18T23:19:35.736Z,11.52
2022-09-18T23:22:04.188Z,10.43
2022-09-18T23:24:32.365Z,11.18
2022-09-18T23:27:00.381Z,11.23
2022-09-18T23:29:33.441Z,10.45
2022-09-18T23:32:01.445Z,10.73
2022-09-18T23:34:33.953Z,10.43
2022-09-18T23:37:02.533Z,10.43
2022-09-18T23:39:35.319Z,10.38
2022-09-18T23:42:06.419Z,11.25
2022-09-18T23:44:36.195Z,11.68
2022-09-18T23:47:04.298Z,15.73
2022-09-18T23:49:32.685Z,16.90
2022-09-18T23:52:01.452Z,17.60
2022-09-18T23:54:31.769Z,14.57
2022-09-18T23:56:59.819Z,12.98
2022-09-18T23:59:29.184Z,12.35
